createdAt,value
2022-10-19T00:05:38.913Z,987.57
2022-10-19T00:12:19.941Z,987.51
2022-10-19T00:18:49.164Z,987.51
2022-10-19T00:25:27.376Z,987.43
2022-10-19T00:32:09.012Z,987.34
2022-10-19T00:38:43.262Z,987.34
2022-10-19T00:45:25.321Z,987.31
2022-10-19T00:52:23.347Z,987.28
2022-10-19T00:59:06.740Z,987.24
2022-10-19T01:05:48.920Z,987.29
2022-10-19T01:12:29.655Z,987.27
2022-10-19T01:19:44.653Z,987.33
2022-10-19T01:26:44.695Z,987.36
2022-10-19T01:33:45.467Z,987.31
2022-10-19T01:41:00.337Z,987.26
2022-10-19T01:48:13.201Z,987.14
2022-10-19T01:55:16.571Z,987.03
2022-10-19T02:02:12.331Z,986.85
2022-10-19T02:08:51.446Z,986.8
2022-10-19T02:15:27.217Z,986.76
2022-10-19T02:22:21.801Z,986.66
2022-10-19T02:28:50.322Z,986.74
2022-10-19T02:35:28.891Z,986.64
2022-10-19T02:42:06.405Z,986.55
2022-10-19T02:49:19.263Z,986.58
2022-10-19T02:56:06.391Z,986.57
2022-10-19T03:02:43.880Z,986.5
2022-10-19T03:09:16.360Z,986.42
2022-10-19T03:15:40.288Z,986.47
2022-10-19T03:22:13.605Z,986.5
2022-10-19T03:28:50.892Z,986.46
2022-10-19T03:35:17.240Z,986.53
2022-10-19T03:41:51.572Z,986.54
2022-10-19T03:48:19.487Z,986.61
2022-10-19T03:55:04.174Z,986.6
2022-10-19T04:01:36.470Z,986.53
2022-10-19T04:08:07.247Z,986.44
2022-10-19T04:14:57.552Z,986.4
2022-10-19T04:21:27.382Z,986.36
2022-10-19T04:28:08.248Z,986.41
2022-10-19T04:34:40.481Z,986.39
2022-10-19T04:41:12.562Z,986.3
2022-10-19T04:47:46.786Z,986.37
2022-10-19T04:54:22.395Z,986.37
2022-10-19T05:00:57.613Z,986.35
2022-10-19T05:07:27.745Z,986.37
2022-10-19T05:14:01.860Z,986.35
2022-10-19T05:20:28.659Z,986.31
2022-10-19T05:27:02.913Z,986.24
2022-10-19T05:33:38.426Z,986.17
2022-10-19T05:40:17.294Z,985.98
2022-10-19T05:46:51.716Z,985.95
2022-10-19T05:53:29.512Z,985.97
2022-10-19T06:00:10.983Z,985.9
2022-10-19T06:07:07.213Z,985.91
2022-10-19T06:13:40.435Z,985.93
2022-10-19T06:20:19.635Z,985.95
2022-10-19T06:27:02.438Z,986.04
2022-10-19T06:33:30.776Z,986.1
2022-10-19T06:40:09.061Z,986.07
2022-10-19T06:46:33.490Z,986.06
2022-10-19T06:53:07.456Z,986.04
2022-10-19T06:59:53.741Z,986.04
2022-10-19T07:06:21.461Z,986.01
2022-10-19T07:12:54.534Z,986.04
2022-10-19T07:19:34.510Z,986.14
2022-10-19T07:26:14.785Z,986.19
2022-10-19T07:32:51.349Z,986.18
2022-10-19T07:39:38.489Z,986.17
2022-10-19T07:46:25.444Z,986.18
2022-10-19T07:52:51.433Z,986.19
2022-10-19T07:59:20.789Z,986.22
2022-10-19T08:06:15.812Z,986.18
2022-10-19T08:13:14.589Z,986.25
2022-10-19T08:20:00.040Z,986.23
2022-10-19T08:26:46.494Z,986.24
2022-10-19T08:33:18.485Z,986.25
2022-10-19T08:40:04.162Z,986.2
2022-10-19T08:47:24.809Z,986.14
2022-10-19T08:54:20.867Z,985.94
2022-10-19T09:01:52.510Z,985.81
2022-10-19T09:09:17.917Z,985.82
2022-10-19T09:16:30.558Z,985.75
2022-10-19T09:23:35.437Z,985.62
2022-10-19T09:30:42.531Z,985.63
2022-10-19T09:37:49.669Z,985.59
2022-10-19T09:44:33.643Z,985.57
2022-10-19T09:51:36.927Z,985.59
2022-10-19T09:58:20.368Z,985.58
2022-10-19T10:05:23.246Z,985.66
2022-10-19T10:12:35.064Z,985.67
2022-10-19T10:19:28.310Z,985.69
2022-10-19T10:26:14.642Z,985.69
2022-10-19T10:33:15.786Z,985.63
2022-10-19T10:40:10.197Z,985.58
2022-10-19T10:47:14.948Z,985.55
2022-10-19T10:54:17.452Z,985.52
2022-10-19T11:01:20.120Z,985.45
2022-10-19T11:08:36.591Z,985.4
2022-10-19T11:16:09.428Z,985.37
2022-10-19T11:23:09.930Z,985.31
2022-10-19T11:30:28.105Z,985.24
2022-10-19T11:38:14.177Z,985.12
2022-10-19T11:45:13.712Z,984.98
2022-10-19T11:52:20.215Z,984.91
2022-10-19T11:59:35.028Z,984.61
2022-10-19T12:06:47.834Z,984.43
2022-10-19T12:14:00.224Z,984.41
2022-10-19T12:21:12.666Z,984.31
2022-10-19T12:28:05.575Z,984.25
2022-10-19T12:42:37.213Z,984.09
2022-10-19T12:49:33.414Z,983.98
2022-10-19T12:56:35.822Z,983.89
2022-10-19T13:03:34.608Z,983.86
2022-10-19T13:10:21.507Z,983.88
2022-10-19T13:17:36.222Z,983.87
2022-10-19T13:24:18.055Z,983.72
2022-10-19T13:31:15.650Z,983.71
2022-10-19T13:38:16.383Z,983.69
2022-10-19T13:45:10.637Z,983.62
2022-10-19T13:52:16.612Z,983.54
2022-10-19T13:59:35.962Z,983.59
2022-10-19T14:06:40.796Z,983.39
2022-10-19T14:13:45.508Z,983.31
2022-10-19T14:20:31.057Z,983.35
2022-10-19T14:27:20.802Z,983.33
2022-10-19T14:34:18.647Z,983.26
2022-10-19T14:41:12.590Z,983.23
2022-10-19T14:48:03.141Z,983.12
2022-10-19T14:54:55.639Z,982.95
2022-10-19T15:01:49.791Z,982.87
2022-10-19T15:08:55.432Z,982.93
2022-10-19T15:15:40.683Z,982.83
2022-10-19T15:22:33.846Z,982.86
2022-10-19T15:29:39.083Z,982.81
2022-10-19T15:36:23.014Z,982.7
2022-10-19T15:43:12.997Z,982.66
2022-10-19T15:50:13.060Z,982.6
2022-10-19T15:57:08.766Z,982.58
2022-10-19T16:03:46.724Z,982.49
2022-10-19T16:10:19.021Z,982.4
2022-10-19T16:16:43.031Z,982.4
2022-10-19T16:23:15.172Z,982.4
2022-10-19T16:29:41.237Z,982.3
2022-10-19T16:36:12.273Z,982.27
2022-10-19T16:42:37.325Z,982.22
2022-10-19T16:49:07.678Z,982.17
2022-10-19T16:55:38.157Z,982.26
2022-10-19T17:02:08.828Z,982.36
2022-10-19T17:15:43.381Z,982.3
2022-10-19T17:22:11.161Z,982.23
2022-10-19T17:28:47.527Z,982.19
2022-10-19T17:35:12.706Z,982.22
2022-10-19T17:41:47.312Z,982.25
2022-10-19T17:48:28.172Z,982.19
2022-10-19T17:55:11.964Z,982.07
2022-10-19T18:01:58.792Z,981.94
2022-10-19T18:08:37.690Z,982.03
2022-10-19T18:15:08.833Z,982.14
2022-10-19T18:21:38.081Z,982.14
2022-10-19T18:28:11.799Z,982.09
2022-10-19T18:34:38.750Z,982.03
2022-10-19T18:41:10.986Z,981.98
2022-10-19T18:47:45.085Z,981.86
2022-10-19T18:54:13.856Z,981.86
2022-10-19T19:01:23.804Z,981.73
2022-10-19T19:09:06.299Z,981.72
2022-10-19T19:16:52.247Z,981.63
2022-10-19T19:24:19.653Z,981.61
2022-10-19T19:31:54.356Z,981.46
2022-10-19T19:39:34.410Z,981.41
2022-10-19T19:46:54.135Z,981.41
2022-10-19T19:54:28.648Z,981.49
2022-10-19T20:01:57.121Z,981.51
2022-10-19T20:09:33.813Z,981.51
2022-10-19T20:17:06.882Z,981.51
2022-10-19T20:24:41.826Z,981.43
2022-10-19T20:32:17.809Z,981.5
2022-10-19T20:39:49.863Z,981.45
2022-10-19T20:47:13.544Z,981.51
2022-10-19T20:54:54.172Z,981.33
2022-10-19T21:02:26.315Z,981.19
2022-10-19T21:10:07.752Z,981.26
2022-10-19T21:17:38.480Z,981.24
2022-10-19T21:25:04.096Z,981.2
2022-10-19T21:32:35.558Z,981.02
2022-10-19T21:39:59.181Z,981.01
2022-10-19T21:47:34.472Z,981
2022-10-19T21:54:50.081Z,980.99
2022-10-19T22:02:14.037Z,980.85
2022-10-19T22:09:41.274Z,980.76
2022-10-19T22:16:54.889Z,980.58
2022-10-19T22:24:17.976Z,980.4
2022-10-19T22:31:47.597Z,980.22
2022-10-19T22:39:07.296Z,980.16
2022-10-19T22:46:38.198Z,980.17
2022-10-19T22:53:58.928Z,980.13
2022-10-19T23:01:20.701Z,980.1
2022-10-19T23:08:48.381Z,980
2022-10-19T23:16:15.963Z,980.05
2022-10-19T23:23:27.308Z,979.98
2022-10-19T23:30:51.747Z,979.83
2022-10-19T23:38:01.742Z,979.84
2022-10-19T23:45:27.262Z,979.75
2022-10-19T23:52:44.897Z,979.68
